Time;durP1;ratioP1;P1;durP2;ratioP2;P2;SDS_P1;SDS_P2;PMS_P1;PMS_P2;Temp;Humidity;BMP_temperature;BMP_pressure;BME280_temperature;BME280_humidity;BME280_pressure;Samples;Min_cycle;Max_cycle;Signal;HPM_P1;HPM_P2
2023/03/09 00:01:36;;;;;;;1.70;1.57;;;10.30;99.90;;;;;;5079215;28;20167;-86
2023/03/09 00:04:03;;;;;;;1.27;1.23;;;10.20;99.90;;;;;;5079851;28;20227;-85
2023/03/09 00:06:29;;;;;;;1.50;1.27;;;10.20;99.90;;;;;;5078216;28;20187;-81
2023/03/09 00:08:55;;;;;;;2.13;1.30;;;10.10;99.90;;;;;;5078994;28;20183;-81
2023/03/09 00:11:21;;;;;;;1.37;1.27;;;10.10;99.90;;;;;;5080530;28;20270;-82
2023/03/09 00:13:48;;;;;;;1.27;1.27;;;10.00;99.90;;;;;;5099114;28;20225;-82
2023/03/09 00:16:23;;;;;;;1.60;1.50;;;10.10;99.90;;;;;;5098242;28;20187;-84
2023/03/09 00:18:51;;;;;;;2.47;1.60;;;10.10;99.90;;;;;;5097630;28;20166;-81
2023/03/09 00:21:36;;;;;;;2.63;1.57;;;10.00;99.90;;;;;;5071333;28;20215;-81
2023/03/09 00:24:03;;;;;;;1.70;1.60;;;10.00;99.90;;;;;;5077752;28;20203;-84
2023/03/09 00:26:29;;;;;;;1.60;1.50;;;10.00;99.90;;;;;;5076789;28;20171;-85
2023/03/09 00:28:55;;;;;;;2.10;1.60;;;9.80;99.90;;;;;;5063021;28;20236;-82
2023/03/09 00:31:20;;;;;;;1.80;1.70;;;9.80;99.90;;;;;;5057619;28;20299;-82
2023/03/09 00:33:49;;;;;;;3.00;1.63;;;9.80;99.90;;;;;;5057790;28;20208;-81
2023/03/09 00:36:16;;;;;;;1.80;1.40;;;10.00;99.90;;;;;;5057545;28;20196;-82
2023/03/09 00:38:43;;;;;;;1.43;1.37;;;10.10;99.90;;;;;;5060083;28;20208;-86
2023/03/09 00:41:09;;;;;;;1.77;1.50;;;10.10;99.90;;;;;;5060550;28;20191;-82
2023/03/09 00:43:35;;;;;;;2.73;1.40;;;10.20;99.90;;;;;;5069971;28;20196;-84
2023/03/09 00:46:01;;;;;;;2.50;1.70;;;10.20;99.90;;;;;;5078388;28;20242;-83
2023/03/09 00:48:26;;;;;;;1.70;1.60;;;10.20;99.90;;;;;;5078777;28;20268;-83
2023/03/09 00:50:52;;;;;;;1.80;1.70;;;10.20;99.90;;;;;;5079130;28;20187;-83
2023/03/09 00:53:18;;;;;;;2.63;1.77;;;10.20;99.90;;;;;;5080801;28;20237;-88
2023/03/09 00:55:43;;;;;;;2.70;2.00;;;10.30;99.90;;;;;;5064924;28;20214;-82
2023/03/09 00:58:10;;;;;;;2.67;1.90;;;10.30;99.90;;;;;;5083938;28;20269;-84
2023/03/09 01:00:37;;;;;;;2.83;2.30;;;10.30;99.90;;;;;;5083177;28;20168;-86
2023/03/09 01:03:03;;;;;;;1.93;1.80;;;10.30;99.90;;;;;;5082488;28;20180;-82
2023/03/09 01:05:29;;;;;;;2.30;1.90;;;10.40;99.90;;;;;;5082456;28;20230;-82
2023/03/09 01:07:55;;;;;;;4.20;1.63;;;10.50;99.90;;;;;;5082972;28;20179;-84
2023/03/09 01:10:21;;;;;;;4.07;1.97;;;10.60;99.90;;;;;;5093429;28;20245;-84
2023/03/09 01:12:46;;;;;;;1.60;1.50;;;10.70;99.90;;;;;;5084282;28;20219;-87
2023/03/09 01:15:12;;;;;;;1.80;1.50;;;10.50;99.90;;;;;;5101497;28;20271;-87
2023/03/09 01:17:38;;;;;;;3.30;1.83;;;10.50;99.90;;;;;;5100317;28;20696;-87
2023/03/09 01:20:05;;;;;;;1.80;1.67;;;10.60;99.90;;;;;;5099571;28;20176;-85
2023/03/09 01:22:30;;;;;;;1.90;1.73;;;10.50;99.90;;;;;;5081078;28;20184;-84
2023/03/09 01:24:56;;;;;;;1.70;1.60;;;10.60;99.90;;;;;;5079215;28;20288;-88
2023/03/09 01:27:22;;;;;;;1.60;1.50;;;10.60;99.90;;;;;;5079280;28;20270;-83
2023/03/09 01:29:47;;;;;;;1.87;1.70;;;10.60;99.90;;;;;;5079169;28;20690;-84
2023/03/09 01:32:13;;;;;;;2.30;1.63;;;10.70;99.90;;;;;;5080241;28;20187;-84
2023/03/09 01:34:39;;;;;;;2.90;1.70;;;10.70;99.90;;;;;;5080584;28;20216;-82
2023/03/09 01:37:04;;;;;;;1.70;1.60;;;10.60;99.90;;;;;;5082942;28;20235;-84
2023/03/09 01:39:30;;;;;;;3.37;1.50;;;10.50;99.90;;;;;;5076844;28;20217;-83
2023/03/09 01:41:57;;;;;;;2.43;1.70;;;10.60;99.90;;;;;;5078807;28;20210;-87
2023/03/09 01:44:22;;;;;;;1.37;1.27;;;10.60;99.90;;;;;;5080529;28;20219;-83
2023/03/09 01:46:56;;;;;;;1.63;1.50;;;10.60;99.90;;;;;;5082327;28;20191;-84
2023/03/09 01:49:32;;;;;;;2.83;1.70;;;10.70;99.90;;;;;;5081803;28;20168;-80
2023/03/09 01:52:07;;;;;;;2.40;1.43;;;10.70;99.90;;;;;;5081277;28;20267;-83
2023/03/09 01:54:39;;;;;;;1.40;1.30;;;10.70;99.90;;;;;;5081125;28;20229;-82
2023/03/09 01:57:11;;;;;;;1.53;1.43;;;10.60;99.90;;;;;;5080656;28;20171;-87
2023/03/09 01:59:38;;;;;;;1.47;1.37;;;10.60;99.90;;;;;;5081804;28;20177;-83
2023/03/09 02:02:05;;;;;;;1.50;1.40;;;10.60;99.90;;;;;;5080907;28;20227;-84
2023/03/09 02:04:37;;;;;;;1.43;1.33;;;10.60;99.90;;;;;;5080272;28;20384;-89
2023/03/09 02:07:03;;;;;;;1.10;1.10;;;10.50;99.90;;;;;;5087949;28;20175;-87
2023/03/09 02:09:39;;;;;;;1.53;1.43;;;10.50;99.90;;;;;;5089651;28;20180;-85
2023/03/09 02:12:07;;;;;;;1.30;1.20;;;10.40;99.90;;;;;;5093138;28;20267;-90
2023/03/09 02:14:33;;;;;;;1.43;1.33;;;10.30;99.90;;;;;;5096742;28;20237;-81
2023/03/09 02:16:59;;;;;;;1.20;1.20;;;10.30;99.90;;;;;;5097030;28;20164;-86
2023/03/09 02:19:42;;;;;;;1.60;1.50;;;10.30;99.90;;;;;;5070870;28;20187;-86
2023/03/09 02:22:08;;;;;;;1.20;1.10;;;10.20;99.90;;;;;;5079119;28;20179;-85
2023/03/09 02:24:44;;;;;;;1.27;1.00;;;10.00;99.90;;;;;;5078694;28;20751;-85
2023/03/09 02:27:15;;;;;;;1.60;1.43;;;9.90;99.90;;;;;;5079339;28;20185;-88
2023/03/09 02:29:41;;;;;;;1.60;1.20;;;9.90;99.90;;;;;;5059212;28;20200;-84
2023/03/09 02:32:06;;;;;;;1.30;1.23;;;9.80;99.90;;;;;;5059513;28;20183;-84
2023/03/09 02:34:32;;;;;;;1.30;1.27;;;9.80;99.90;;;;;;5049942;28;20689;-84
2023/03/09 02:36:57;;;;;;;2.50;1.30;;;9.90;99.90;;;;;;5075384;28;20692;-82
2023/03/09 02:39:47;;;;;;;1.83;1.23;;;10.00;99.90;;;;;;5080979;28;20186;-81
2023/03/09 02:42:13;;;;;;;1.17;1.17;;;10.10;99.90;;;;;;5062408;28;20191;-83
2023/03/09 02:44:39;;;;;;;1.47;1.20;;;10.10;99.90;;;;;;5079861;28;20257;-82
2023/03/09 02:47:13;;;;;;;1.47;1.20;;;10.00;99.90;;;;;;5080760;28;20634;-82
2023/03/09 02:49:39;;;;;;;2.20;1.23;;;10.00;99.90;;;;;;5062581;28;20179;-81
2023/03/09 02:52:05;;;;;;;1.50;1.40;;;10.00;99.90;;;;;;5081266;28;20835;-82
2023/03/09 02:54:30;;;;;;;1.30;1.13;;;9.90;99.90;;;;;;5080756;28;20204;-82
2023/03/09 02:56:56;;;;;;;1.40;1.30;;;9.90;99.90;;;;;;5080489;28;20186;-83
2023/03/09 02:59:21;;;;;;;1.33;1.23;;;9.80;99.90;;;;;;5080393;28;20179;-85
2023/03/09 03:01:47;;;;;;;1.90;1.23;;;9.90;99.90;;;;;;5079912;28;20237;-83
2023/03/09 03:04:13;;;;;;;1.50;1.27;;;9.80;99.90;;;;;;5062212;28;20210;-83
2023/03/09 03:06:39;;;;;;;2.43;1.40;;;9.80;99.90;;;;;;5080431;28;20199;-82
2023/03/09 03:09:05;;;;;;;1.47;1.20;;;9.70;99.90;;;;;;5080440;28;20172;-84
2023/03/09 03:11:31;;;;;;;1.27;1.17;;;9.70;99.90;;;;;;5099539;28;20179;-82
2023/03/09 03:13:57;;;;;;;1.70;1.23;;;9.60;99.90;;;;;;5099103;28;20594;-83
2023/03/09 03:16:23;;;;;;;2.93;1.33;;;9.60;99.90;;;;;;5098709;28;20167;-82
2023/03/09 03:18:48;;;;;;;1.17;1.10;;;9.60;99.90;;;;;;5098396;28;20182;-88
2023/03/09 03:21:14;;;;;;;1.50;1.30;;;9.50;99.90;;;;;;5097767;28;20175;-86
2023/03/09 03:23:40;;;;;;;1.27;1.17;;;9.60;99.90;;;;;;5098473;28;20178;-84
2023/03/09 03:26:10;;;;;;;3.33;1.40;;;9.50;99.90;;;;;;5099449;28;20178;-84
2023/03/09 03:28:36;;;;;;;1.40;1.37;;;9.50;99.90;;;;;;5080602;28;20213;-81
2023/03/09 03:31:03;;;;;;;2.30;1.40;;;9.50;99.90;;;;;;5073467;28;20192;-81
2023/03/09 03:33:29;;;;;;;3.13;1.47;;;9.50;99.90;;;;;;5059492;28;20795;-88
2023/03/09 03:35:56;;;;;;;1.67;1.40;;;9.40;99.90;;;;;;5079201;28;20207;-84
2023/03/09 03:38:21;;;;;;;1.77;1.40;;;9.30;99.90;;;;;;5061488;28;20199;-80
2023/03/09 03:40:48;;;;;;;1.77;1.50;;;9.50;99.90;;;;;;5079786;28;20184;-83
2023/03/09 03:43:13;;;;;;;3.87;1.60;;;9.40;99.90;;;;;;5065573;28;20661;-84
2023/03/09 03:45:39;;;;;;;2.30;1.50;;;9.40;99.90;;;;;;5083936;28;20230;-84
2023/03/09 03:48:17;;;;;;;2.33;1.50;;;9.40;99.90;;;;;;5079395;28;20190;-87
2023/03/09 03:50:42;;;;;;;1.60;1.50;;;9.40;99.90;;;;;;5079231;28;20190;-82
2023/03/09 03:53:08;;;;;;;3.40;1.70;;;9.40;99.90;;;;;;5079334;28;20231;-85
2023/03/09 03:55:34;;;;;;;2.63;1.73;;;9.40;99.90;;;;;;5079803;28;20289;-87
2023/03/09 03:57:59;;;;;;;1.70;1.60;;;9.40;99.90;;;;;;5081939;28;20167;-84
2023/03/09 04:00:25;;;;;;;2.20;1.83;;;9.40;99.90;;;;;;5080360;28;20259;-86
2023/03/09 04:02:51;;;;;;;2.90;1.47;;;9.30;99.90;;;;;;5080794;28;20698;-85
2023/03/09 04:05:17;;;;;;;4.37;2.00;;;9.30;99.90;;;;;;5080283;28;20225;-84
2023/03/09 04:07:43;;;;;;;2.57;1.80;;;9.30;99.90;;;;;;5088157;28;20176;-82
2023/03/09 04:10:09;;;;;;;3.00;1.40;;;9.30;99.90;;;;;;5090148;28;20175;-89
2023/03/09 04:12:35;;;;;;;4.30;1.70;;;9.20;99.90;;;;;;5087494;28;20201;-85
2023/03/09 04:15:00;;;;;;;1.70;1.43;;;9.30;99.90;;;;;;5079163;28;20207;-84
2023/03/09 04:17:26;;;;;;;3.53;1.70;;;9.40;99.90;;;;;;5076016;28;20179;-86
2023/03/09 04:19:51;;;;;;;1.90;1.77;;;9.30;99.90;;;;;;5077110;28;20176;-83
2023/03/09 04:22:19;;;;;;;2.33;1.60;;;9.30;99.90;;;;;;5077598;28;20183;-85
2023/03/09 04:24:48;;;;;;;3.27;1.97;;;9.30;99.90;;;;;;5076734;28;20235;-83
2023/03/09 04:27:13;;;;;;;3.40;2.00;;;9.40;99.90;;;;;;5043504;28;20200;-87
2023/03/09 04:29:39;;;;;;;3.87;1.90;;;9.30;99.90;;;;;;5077864;28;20226;-83
2023/03/09 04:32:05;;;;;;;2.83;2.00;;;9.30;99.90;;;;;;5082301;28;20389;-83
2023/03/09 04:34:31;;;;;;;4.13;1.73;;;9.30;99.90;;;;;;5082832;28;20335;-83
2023/03/09 04:36:57;;;;;;;4.57;1.90;;;9.30;99.90;;;;;;5082101;28;20971;-86
2023/03/09 04:39:23;;;;;;;4.40;2.00;;;9.30;99.90;;;;;;5083097;28;20301;-82
2023/03/09 04:41:49;;;;;;;4.40;2.00;;;9.40;99.90;;;;;;5081537;28;20180;-81
2023/03/09 04:44:15;;;;;;;4.87;1.80;;;9.30;99.90;;;;;;5081139;28;20206;-86
2023/03/09 04:46:40;;;;;;;2.90;2.07;;;9.30;99.90;;;;;;5081836;28;20691;-83
2023/03/09 04:49:06;;;;;;;5.63;2.33;;;9.40;99.90;;;;;;5081216;28;20200;-87
2023/03/09 04:51:32;;;;;;;4.17;2.17;;;9.30;99.90;;;;;;5064281;28;20187;-87
2023/03/09 04:53:57;;;;;;;6.13;2.33;;;9.30;99.90;;;;;;5081982;28;20230;-83
2023/03/09 04:56:23;;;;;;;3.40;2.30;;;9.30;99.90;;;;;;5081974;28;20199;-82
2023/03/09 04:58:48;;;;;;;5.40;1.90;;;9.30;99.90;;;;;;5082241;28;20175;-83
2023/03/09 05:01:14;;;;;;;5.93;2.13;;;9.30;99.90;;;;;;5081390;28;20201;-84
2023/03/09 05:03:40;;;;;;;4.27;2.00;;;9.30;99.90;;;;;;5080806;28;20242;-83
2023/03/09 05:06:06;;;;;;;2.63;2.17;;;9.30;99.90;;;;;;5081019;28;20190;-85
2023/03/09 05:08:32;;;;;;;4.80;2.03;;;9.40;99.90;;;;;;5080300;28;20239;-85
2023/03/09 05:10:57;;;;;;;4.20;2.30;;;9.40;99.90;;;;;;5080696;28;20222;-83
2023/03/09 05:13:25;;;;;;;4.13;1.90;;;9.30;99.90;;;;;;5079217;28;20305;-85
2023/03/09 05:15:50;;;;;;;6.60;2.20;;;9.40;99.90;;;;;;5061084;28;20719;-85
2023/03/09 05:18:16;;;;;;;8.13;2.30;;;9.50;99.90;;;;;;5079629;28;20183;-83
2023/03/09 05:20:41;;;;;;;5.93;2.47;;;9.50;99.90;;;;;;5075250;28;20184;-83
2023/03/09 05:23:07;;;;;;;3.57;1.97;;;9.50;99.90;;;;;;5066916;28;20192;-82
2023/03/09 05:25:33;;;;;;;4.33;2.27;;;9.50;99.90;;;;;;5065338;28;20215;-83
2023/03/09 05:27:59;;;;;;;5.13;2.20;;;9.50;99.90;;;;;;5067897;28;20233;-83
2023/03/09 05:30:25;;;;;;;5.23;2.30;;;9.60;99.90;;;;;;5082013;28;20175;-83
2023/03/09 05:32:50;;;;;;;5.00;2.60;;;9.60;99.90;;;;;;5081226;28;20210;-84
2023/03/09 05:35:18;;;;;;;5.97;2.23;;;9.50;99.90;;;;;;5081582;28;20206;-86
2023/03/09 05:37:44;;;;;;;4.20;2.33;;;9.60;99.90;;;;;;5080672;28;20322;-83
2023/03/09 05:40:11;;;;;;;4.80;2.30;;;9.60;99.90;;;;;;5080481;28;20196;-84
2023/03/09 05:42:36;;;;;;;5.17;2.20;;;9.60;99.90;;;;;;5082478;28;20168;-84
2023/03/09 05:45:04;;;;;;;4.60;2.53;;;9.70;99.90;;;;;;5081335;28;20764;-84
2023/03/09 05:47:30;;;;;;;5.17;2.17;;;9.70;99.90;;;;;;5081406;28;20175;-82
2023/03/09 05:49:56;;;;;;;9.00;2.60;;;9.70;99.90;;;;;;5080902;28;20261;-83
2023/03/09 05:52:21;;;;;;;4.57;2.43;;;9.60;99.90;;;;;;5080201;28;20645;-87
2023/03/09 05:54:47;;;;;;;4.63;2.40;;;9.70;99.90;;;;;;5080429;28;20218;-83
2023/03/09 05:57:13;;;;;;;5.43;2.80;;;9.80;99.90;;;;;;5080485;28;20519;-86
2023/03/09 05:59:39;;;;;;;7.40;2.83;;;9.80;99.90;;;;;;5080353;28;20634;-81
2023/03/09 06:02:05;;;;;;;7.03;2.83;;;9.80;99.90;;;;;;5080176;28;20176;-83
2023/03/09 06:04:30;;;;;;;7.37;2.80;;;9.80;99.90;;;;;;5080985;28;20225;-88
2023/03/09 06:06:56;;;;;;;7.43;3.00;;;9.80;99.90;;;;;;5080390;28;20183;-84
2023/03/09 06:09:22;;;;;;;6.27;3.03;;;9.80;99.90;;;;;;5082076;28;20180;-86
2023/03/09 06:11:48;;;;;;;5.73;2.70;;;9.90;99.90;;;;;;5098933;28;20583;-84
2023/03/09 06:14:13;;;;;;;8.10;3.17;;;9.90;99.90;;;;;;5099741;28;20206;-84
2023/03/09 06:16:39;;;;;;;8.80;3.20;;;10.10;99.90;;;;;;5083883;28;20186;-83
2023/03/09 06:19:05;;;;;;;6.17;2.70;;;9.90;99.90;;;;;;5084144;28;20214;-84
2023/03/09 06:21:31;;;;;;;7.00;2.87;;;10.00;99.90;;;;;;5049990;28;20267;-85
2023/03/09 06:23:57;;;;;;;6.63;2.77;;;10.10;99.90;;;;;;5061219;28;20180;-82
2023/03/09 06:26:24;;;;;;;5.17;2.57;;;10.30;99.90;;;;;;5059175;28;20202;-86
2023/03/09 06:28:49;;;;;;;6.90;2.63;;;10.20;99.90;;;;;;5059545;28;20189;-85
2023/03/09 06:31:16;;;;;;;6.00;2.77;;;10.10;99.90;;;;;;5041469;28;20191;-83
2023/03/09 06:33:44;;;;;;;8.70;3.10;;;10.10;99.90;;;;;;5059753;28;20201;-85
2023/03/09 06:36:11;;;;;;;9.60;2.87;;;10.20;99.90;;;;;;5059831;28;20176;-82
2023/03/09 06:38:37;;;;;;;11.07;3.20;;;10.30;98.60;;;;;;5072154;28;20181;-87
2023/03/09 06:41:03;;;;;;;4.70;2.70;;;10.30;99.30;;;;;;5076899;28;20172;-85
2023/03/09 06:43:29;;;;;;;5.23;2.80;;;10.30;99.10;;;;;;5076491;28;20184;-87
2023/03/09 06:45:54;;;;;;;6.27;2.93;;;10.50;96.30;;;;;;5064449;28;20231;-86
2023/03/09 06:48:20;;;;;;;6.60;2.83;;;10.40;97.60;;;;;;5065641;28;20199;-85
2023/03/09 06:50:48;;;;;;;5.20;2.80;;;10.50;96.20;;;;;;5065749;28;20550;-86
2023/03/09 06:53:14;;;;;;;6.47;2.80;;;10.50;96.90;;;;;;5063668;28;20246;-85
2023/03/09 06:55:39;;;;;;;5.73;2.50;;;10.50;96.30;;;;;;5059038;28;20204;-84
2023/03/09 06:58:06;;;;;;;6.87;2.57;;;10.50;94.70;;;;;;5058904;28;20172;-86
2023/03/09 07:00:31;;;;;;;6.67;2.80;;;10.60;95.00;;;;;;5059186;28;20172;-83
2023/03/09 07:02:57;;;;;;;6.47;3.20;;;10.60;94.70;;;;;;5067792;23;20303;-80
2023/03/09 07:05:23;;;;;;;7.13;2.53;;;10.60;93.10;;;;;;5075382;28;20238;-80
2023/03/09 07:07:49;;;;;;;6.73;2.60;;;10.80;92.50;;;;;;5073790;28;20203;-79
2023/03/09 07:10:15;;;;;;;6.77;2.83;;;10.70;93.80;;;;;;5086609;28;20179;-84
2023/03/09 07:12:41;;;;;;;5.87;2.57;;;10.70;94.10;;;;;;5097305;28;20277;-82
2023/03/09 07:15:09;;;;;;;6.47;2.97;;;10.70;92.70;;;;;;5086749;28;20609;-82
2023/03/09 07:17:36;;;;;;;4.90;2.63;;;10.80;92.90;;;;;;5066482;28;20251;-82
2023/03/09 07:20:01;;;;;;;5.63;2.73;;;10.90;91.90;;;;;;5058026;28;20203;-80
2023/03/09 07:22:27;;;;;;;5.30;2.43;;;10.90;91.30;;;;;;5057924;28;20200;-80
2023/03/09 07:24:53;;;;;;;6.60;3.30;;;10.80;92.30;;;;;;5058081;28;20191;-81
2023/03/09 07:27:22;;;;;;;5.00;2.50;;;11.00;90.40;;;;;;5041122;28;20188;-80
2023/03/09 07:29:47;;;;;;;10.43;3.03;;;11.00;90.70;;;;;;5078160;28;20498;-82
2023/03/09 07:32:15;;;;;;;8.37;2.83;;;11.00;90.00;;;;;;5059604;28;20203;-82
2023/03/09 07:34:40;;;;;;;6.77;3.47;;;11.00;91.70;;;;;;5077390;28;20586;-80
2023/03/09 07:37:06;;;;;;;8.27;3.20;;;10.90;91.80;;;;;;5057655;28;20190;-80
2023/03/09 07:39:34;;;;;;;6.70;2.70;;;10.90;90.20;;;;;;5077218;28;20187;-80
2023/03/09 07:42:00;;;;;;;8.03;2.87;;;11.10;90.80;;;;;;5059339;28;20328;-78
2023/03/09 07:44:27;;;;;;;8.27;3.00;;;11.10;92.00;;;;;;5077984;28;20187;-81
2023/03/09 07:46:53;;;;;;;4.80;2.40;;;11.00;92.30;;;;;;5077297;28;20345;-83
2023/03/09 07:49:19;;;;;;;6.10;3.17;;;11.00;93.40;;;;;;5059459;28;20203;-82
2023/03/09 07:51:45;;;;;;;3.20;2.37;;;10.90;94.10;;;;;;5075108;28;20187;-81
2023/03/09 07:54:10;;;;;;;7.83;3.10;;;10.90;93.90;;;;;;5058431;28;20211;-82
2023/03/09 07:56:36;;;;;;;4.60;3.13;;;10.80;97.40;;;;;;5076465;28;20206;-79
2023/03/09 07:59:02;;;;;;;5.53;2.43;;;10.80;96.90;;;;;;5074946;28;20306;-82
2023/03/09 08:01:27;;;;;;;4.83;2.37;;;10.60;99.10;;;;;;5075894;28;20183;-82
2023/03/09 08:03:53;;;;;;;7.37;2.80;;;10.70;98.80;;;;;;5076685;28;20222;-81
2023/03/09 08:06:19;;;;;;;7.10;2.70;;;10.50;99.90;;;;;;5079386;28;20207;-83
2023/03/09 08:08:46;;;;;;;5.57;2.70;;;10.70;99.90;;;;;;5062291;28;20229;-82
2023/03/09 08:11:12;;;;;;;7.70;2.50;;;10.70;99.90;;;;;;5063676;28;20199;-80
2023/03/09 08:13:38;;;;;;;6.20;3.00;;;10.60;99.90;;;;;;5067594;28;20286;-82
2023/03/09 08:16:07;;;;;;;9.57;2.50;;;10.60;99.90;;;;;;5079993;28;20199;-81
2023/03/09 08:18:34;;;;;;;6.40;2.87;;;10.60;99.90;;;;;;5063340;28;20259;-82
2023/03/09 08:21:07;;;;;;;5.13;3.10;;;10.70;99.90;;;;;;5075877;28;20214;-82
2023/03/09 08:23:35;;;;;;;4.77;2.57;;;10.70;99.60;;;;;;5061916;28;20543;-81
2023/03/09 08:26:01;;;;;;;7.10;2.73;;;10.70;98.80;;;;;;5065339;28;20194;-81
2023/03/09 08:28:27;;;;;;;4.57;2.37;;;10.70;98.70;;;;;;5074410;28;20183;-82
2023/03/09 08:30:52;;;;;;;7.13;2.73;;;10.70;97.50;;;;;;5082311;28;20180;-78
2023/03/09 08:33:18;;;;;;;6.17;2.40;;;10.80;96.80;;;;;;5081021;28;20207;-82
2023/03/09 08:35:44;;;;;;;6.80;2.70;;;10.70;97.00;;;;;;5081046;28;20259;-83
2023/03/09 08:38:09;;;;;;;4.97;2.50;;;10.70;96.20;;;;;;5081650;28;20205;-83
2023/03/09 08:40:38;;;;;;;4.53;2.17;;;10.80;95.50;;;;;;5081885;28;20580;-82
2023/03/09 08:43:04;;;;;;;3.40;2.13;;;10.80;94.90;;;;;;5081805;28;20203;-81
2023/03/09 08:45:29;;;;;;;5.13;2.43;;;10.90;95.50;;;;;;5063489;28;20186;-83
2023/03/09 08:47:55;;;;;;;6.20;2.53;;;11.00;93.10;;;;;;5080228;28;20184;-80
2023/03/09 08:50:21;;;;;;;7.23;2.90;;;11.00;94.50;;;;;;5061240;28;20205;-81
2023/03/09 08:52:46;;;;;;;3.33;2.10;;;11.00;93.60;;;;;;5079959;28;20268;-81
2023/03/09 08:55:12;;;;;;;5.20;2.40;;;10.90;95.10;;;;;;5080073;28;20263;-82
2023/03/09 08:57:38;;;;;;;5.47;2.30;;;11.00;94.90;;;;;;5080934;28;20175;-81
2023/03/09 09:00:06;;;;;;;4.93;2.00;;;11.10;93.90;;;;;;5079559;28;20172;-79
2023/03/09 09:02:32;;;;;;;2.13;1.93;;;11.10;93.90;;;;;;5079163;28;20231;-82
2023/03/09 09:04:58;;;;;;;3.73;2.33;;;11.10;94.30;;;;;;5080610;28;20229;-81
2023/03/09 09:07:24;;;;;;;4.53;2.07;;;11.10;93.80;;;;;;5075444;28;20188;-83
2023/03/09 09:09:49;;;;;;;4.47;2.20;;;11.20;93.50;;;;;;5049116;28;20176;-84
2023/03/09 09:12:15;;;;;;;3.17;2.17;;;11.30;90.90;;;;;;5081068;28;20608;-80
2023/03/09 09:14:42;;;;;;;4.93;2.30;;;11.30;91.00;;;;;;5081276;28;20199;-80
2023/03/09 09:17:08;;;;;;;3.70;2.27;;;11.30;92.00;;;;;;5063671;28;20234;-83
2023/03/09 09:19:38;;;;;;;5.57;1.90;;;11.30;92.00;;;;;;5081176;28;20195;-83
2023/03/09 09:22:05;;;;;;;2.90;2.10;;;11.30;92.60;;;;;;5063268;28;20168;-84
2023/03/09 09:24:32;;;;;;;6.17;2.30;;;11.30;92.00;;;;;;5060432;28;20649;-83
2023/03/09 09:26:58;;;;;;;4.90;2.47;;;11.30;92.30;;;;;;5061414;28;20184;-82
2023/03/09 09:29:24;;;;;;;5.67;2.40;;;11.50;90.80;;;;;;5059160;28;20180;-79
2023/03/09 09:31:49;;;;;;;4.00;1.93;;;11.50;92.60;;;;;;5062099;28;20184;-82
2023/03/09 09:34:18;;;;;;;5.73;2.60;;;11.30;94.90;;;;;;5062991;28;20222;-80
2023/03/09 09:36:44;;;;;;;4.67;1.67;;;11.20;97.70;;;;;;5070012;28;20182;-82
2023/03/09 09:39:12;;;;;;;7.83;2.57;;;11.10;99.90;;;;;;5069242;28;20182;-81
2023/03/09 09:41:55;;;;;;;5.57;2.20;;;11.00;99.90;;;;;;5086821;28;20191;-81
2023/03/09 09:44:32;;;;;;;4.37;2.27;;;11.00;99.90;;;;;;5063078;28;20538;-83
2023/03/09 09:47:03;;;;;;;3.90;2.13;;;11.00;99.90;;;;;;5082677;28;20171;-82
2023/03/09 09:49:33;;;;;;;5.10;2.33;;;11.10;97.70;;;;;;5063376;28;20171;-81
2023/03/09 09:52:17;;;;;;;6.53;2.20;;;11.10;97.20;;;;;;5081204;28;20265;-79
2023/03/09 09:54:58;;;;;;;4.63;2.40;;;11.10;97.40;;;;;;5080652;28;20196;-81
2023/03/09 09:57:43;;;;;;;4.67;2.40;;;11.20;95.10;;;;;;5080464;28;20160;-82
2023/03/09 10:00:12;;;;;;;6.40;2.67;;;11.20;98.30;;;;;;5081613;28;20156;-82
2023/03/09 10:03:05;;;;;;;6.30;2.63;;;11.30;96.90;;;;;;5081028;28;20266;-82
2023/03/09 10:05:57;;;;;;;3.77;2.17;;;11.30;99.70;;;;;;5072835;28;20171;-79
2023/03/09 10:08:26;;;;;;;6.27;2.30;;;11.00;99.90;;;;;;5083907;28;20642;-84
2023/03/09 10:10:52;;;;;;;9.47;2.73;;;10.90;99.90;;;;;;5097489;28;20187;-86
2023/03/09 10:13:31;;;;;;;7.73;2.73;;;10.80;99.90;;;;;;5102697;28;20215;-83
2023/03/09 10:16:01;;;;;;;4.10;2.40;;;10.70;99.90;;;;;;5102367;28;20193;-85
2023/03/09 10:18:36;;;;;;;4.90;2.90;;;10.60;99.90;;;;;;5102103;28;20174;-83
2023/03/09 10:21:05;;;;;;;5.77;2.90;;;10.70;99.90;;;;;;5075618;28;20335;-85
2023/03/09 10:23:33;;;;;;;4.50;2.47;;;10.70;99.90;;;;;;5081884;28;20192;-85
2023/03/09 10:26:27;;;;;;;5.50;2.60;;;10.80;99.90;;;;;;5060741;28;20179;-79
2023/03/09 10:29:00;;;;;;;4.77;2.40;;;10.70;99.90;;;;;;5011065;28;20274;-80
2023/03/09 10:31:31;;;;;;;4.07;2.37;;;10.80;99.90;;;;;;5061228;28;20211;-81
2023/03/09 10:34:19;;;;;;;6.17;2.47;;;10.80;99.90;;;;;;5060016;28;20296;-78
2023/03/09 10:37:00;;;;;;;4.50;2.60;;;10.90;99.90;;;;;;5079078;28;20168;-82
2023/03/09 10:39:31;;;;;;;5.20;2.40;;;11.00;99.90;;;;;;5079205;28;20189;-81
2023/03/09 10:42:26;;;;;;;6.50;2.30;;;11.20;99.90;;;;;;5078990;28;20164;-78
2023/03/09 10:45:06;;;;;;;3.57;2.17;;;11.30;99.40;;;;;;5076260;28;20188;-85
2023/03/09 10:48:00;;;;;;;4.77;2.00;;;11.60;99.80;;;;;;5079283;28;20159;-84
2023/03/09 10:50:40;;;;;;;3.80;2.10;;;11.80;97.70;;;;;;5073252;28;20214;-81
2023/03/09 10:53:43;;;;;;;3.90;2.07;;;12.20;97.30;;;;;;5057896;28;20340;-77
2023/03/09 10:56:15;;;;;;;3.83;2.00;;;12.20;94.80;;;;;;5061418;28;20641;-81
2023/03/09 10:58:41;;;;;;;4.47;2.13;;;12.40;97.20;;;;;;5076836;28;20601;-82
2023/03/09 11:01:16;;;;;;;5.47;2.23;;;12.70;91.20;;;;;;5067758;28;20188;-81
2023/03/09 11:03:43;;;;;;;5.30;2.73;;;13.00;92.70;;;;;;5037718;28;20286;-79
2023/03/09 11:06:27;;;;;;;4.83;2.50;;;13.20;90.80;;;;;;5056198;28;20207;-82
2023/03/09 11:09:13;;;;;;;5.93;2.60;;;13.10;87.60;;;;;;5057703;28;20200;-79
2023/03/09 11:11:40;;;;;;;5.70;2.40;;;13.10;88.90;;;;;;5060970;28;20185;-85
2023/03/09 11:14:29;;;;;;;4.50;2.50;;;13.50;86.40;;;;;;5058394;28;20225;-82
2023/03/09 11:16:57;;;;;;;4.33;2.40;;;13.20;89.00;;;;;;5060009;28;20198;-83
2023/03/09 11:19:23;;;;;;;3.97;2.67;;;12.90;87.20;;;;;;5058567;28;20173;-81
2023/03/09 11:21:58;;;;;;;6.30;2.70;;;12.80;90.10;;;;;;5072439;28;20184;-83
2023/03/09 11:24:38;;;;;;;8.03;2.80;;;12.60;91.80;;;;;;5060635;28;20275;-82
2023/03/09 11:27:23;;;;;;;4.60;2.57;;;12.70;93.30;;;;;;5078788;28;20249;-85
2023/03/09 11:30:02;;;;;;;6.20;2.87;;;12.70;90.30;;;;;;5058804;28;20538;-79
2023/03/09 11:32:28;;;;;;;3.30;2.63;;;12.50;91.40;;;;;;5057120;28;20260;-82
2023/03/09 11:34:54;;;;;;;7.63;2.67;;;12.50;92.60;;;;;;5058150;28;20208;-83
2023/03/09 11:37:40;;;;;;;7.93;2.67;;;12.70;94.20;;;;;;5056197;28;20259;-81
2023/03/09 11:40:12;;;;;;;4.63;2.77;;;12.80;94.40;;;;;;5056163;28;20166;-82
2023/03/09 11:42:53;;;;;;;7.87;3.53;;;12.60;95.10;;;;;;5055348;28;20220;-81
2023/03/09 11:45:25;;;;;;;6.20;3.07;;;12.40;93.00;;;;;;5056102;28;20226;-82
2023/03/09 11:47:55;;;;;;;5.97;2.60;;;12.30;94.90;;;;;;5062896;28;20177;-80
2023/03/09 11:50:38;;;;;;;4.73;2.40;;;12.30;95.30;;;;;;5056629;28;20176;-82
2023/03/09 11:53:18;;;;;;;7.23;2.43;;;12.20;93.90;;;;;;5056341;28;20196;-83
2023/03/09 11:55:47;;;;;;;8.07;2.93;;;12.10;91.80;;;;;;5059709;28;20184;-84
2023/03/09 11:58:21;;;;;;;7.70;2.77;;;12.20;96.20;;;;;;5067216;28;20178;-82
2023/03/09 12:00:52;;;;;;;6.10;3.10;;;12.50;92.20;;;;;;5074652;28;20183;-81
2023/03/09 12:03:19;;;;;;;7.27;3.03;;;12.50;93.20;;;;;;5076866;28;20219;-80
2023/03/09 12:05:58;;;;;;;4.73;2.27;;;12.40;93.10;;;;;;5076947;28;20198;-82
2023/03/09 12:08:41;;;;;;;5.57;2.77;;;12.10;96.70;;;;;;5078780;28;20155;-84
2023/03/09 12:11:12;;;;;;;4.87;2.50;;;12.00;99.90;;;;;;5077047;28;20185;-83
2023/03/09 12:13:52;;;;;;;7.77;2.67;;;11.90;99.90;;;;;;5077119;28;20210;-81
2023/03/09 12:16:31;;;;;;;6.87;2.57;;;11.90;99.20;;;;;;5079069;28;20202;-82
2023/03/09 12:19:04;;;;;;;4.37;2.73;;;12.20;98.90;;;;;;5077559;28;20191;-80
2023/03/09 12:21:36;;;;;;;6.10;2.83;;;12.20;99.60;;;;;;5077190;28;20174;-84
2023/03/09 12:24:25;;;;;;;6.90;3.17;;;12.10;99.90;;;;;;5078305;28;20200;-82
2023/03/09 12:27:05;;;;;;;5.23;2.67;;;12.10;99.90;;;;;;5078333;28;20645;-79
2023/03/09 12:29:43;;;;;;;6.93;2.93;;;12.10;99.90;;;;;;5077430;28;20179;-82
2023/03/09 12:32:24;;;;;;;4.83;2.30;;;12.10;99.90;;;;;;5079043;28;20178;-80
2023/03/09 12:34:52;;;;;;;5.93;2.70;;;12.20;99.90;;;;;;5059468;28;20201;-81
2023/03/09 12:37:36;;;;;;;7.77;2.80;;;12.10;99.90;;;;;;5075685;28;20189;-81
2023/03/09 12:40:25;;;;;;;5.80;3.10;;;12.00;99.90;;;;;;5077961;28;20242;-81
2023/03/09 12:42:53;;;;;;;7.70;2.90;;;11.90;99.90;;;;;;5061656;28;20199;-83
2023/03/09 12:45:19;;;;;;;7.13;2.83;;;11.80;99.90;;;;;;5076774;28;20714;-81
2023/03/09 12:47:47;;;;;;;7.17;2.60;;;11.70;99.90;;;;;;5079438;28;20476;-84
2023/03/09 12:50:31;;;;;;;6.50;2.97;;;11.80;99.90;;;;;;5063833;28;20202;-81
2023/03/09 12:53:15;;;;;;;6.27;3.10;;;11.70;99.90;;;;;;5077363;28;20245;-82
2023/03/09 12:55:55;;;;;;;7.90;3.07;;;11.90;99.90;;;;;;5071586;28;20238;-80
2023/03/09 12:58:21;;;;;;;6.17;3.00;;;12.00;99.90;;;;;;5091060;28;20190;-81
2023/03/09 13:01:08;;;;;;;4.83;2.93;;;12.20;99.90;;;;;;5085593;28;20182;-84